sensor_id;sensor_type;location;lat;lon;timestamp;P1;durP1;ratioP1;P2;durP2;ratioP2
15049;SDS011;7622;42.724;23.250;2023-04-03T00:00:09;1.57;;;1.47;;
15049;SDS011;7622;42.724;23.250;2023-04-03T00:02:37;2.40;;;1.30;;
15049;SDS011;7622;42.724;23.250;2023-04-03T00:05:05;1.40;;;1.30;;
15049;SDS011;7622;42.724;23.250;2023-04-03T00:07:33;1.60;;;1.47;;
15049;SDS011;7622;42.724;23.250;2023-04-03T00:09:59;1.60;;;1.50;;
15049;SDS011;7622;42.724;23.250;2023-04-03T00:12:26;1.03;;;1.03;;
15049;SDS011;7622;42.724;23.250;2023-04-03T00:14:53;1.40;;;1.30;;
15049;SDS011;7622;42.724;23.250;2023-04-03T00:17:21;1.80;;;1.50;;
15049;SDS011;7622;42.724;23.250;2023-04-03T00:19:48;1.93;;;1.30;;
15049;SDS011;7622;42.724;23.250;2023-04-03T00:22:14;1.40;;;1.30;;
15049;SDS011;7622;42.724;23.250;2023-04-03T00:24:41;1.67;;;1.57;;
15049;SDS011;7622;42.724;23.250;2023-04-03T00:27:08;1.53;;;1.43;;
15049;SDS011;7622;42.724;23.250;2023-04-03T00:29:36;1.90;;;1.80;;
15049;SDS011;7622;42.724;23.250;2023-04-03T00:32:03;3.70;;;2.40;;
15049;SDS011;7622;42.724;23.250;2023-04-03T00:34:31;2.30;;;2.20;;
15049;SDS011;7622;42.724;23.250;2023-04-03T00:36:58;4.87;;;4.07;;
15049;SDS011;7622;42.724;23.250;2023-04-03T00:39:24;4.53;;;4.00;;
15049;SDS011;7622;42.724;23.250;2023-04-03T00:41:51;6.23;;;4.33;;
15049;SDS011;7622;42.724;23.250;2023-04-03T00:44:19;4.37;;;3.43;;
15049;SDS011;7622;42.724;23.250;2023-04-03T00:46:47;5.27;;;3.73;;
15049;SDS011;7622;42.724;23.250;2023-04-03T00:49:14;6.57;;;4.77;;
15049;SDS011;7622;42.724;23.250;2023-04-03T00:51:42;6.13;;;4.10;;
15049;SDS011;7622;42.724;23.250;2023-04-03T00:54:09;7.27;;;4.50;;
15049;SDS011;7622;42.724;23.250;2023-04-03T00:56:36;6.47;;;4.63;;
15049;SDS011;7622;42.724;23.250;2023-04-03T00:59:04;6.57;;;4.53;;
15049;SDS011;7622;42.724;23.250;2023-04-03T01:01:34;5.03;;;3.77;;
15049;SDS011;7622;42.724;23.250;2023-04-03T01:04:03;4.83;;;4.33;;
15049;SDS011;7622;42.724;23.250;2023-04-03T01:06:32;4.90;;;3.80;;
15049;SDS011;7622;42.724;23.250;2023-04-03T01:09:04;3.90;;;2.70;;
15049;SDS011;7622;42.724;23.250;2023-04-03T01:11:32;3.43;;;3.13;;
15049;SDS011;7622;42.724;23.250;2023-04-03T01:13:58;5.00;;;3.57;;
15049;SDS011;7622;42.724;23.250;2023-04-03T01:16:26;3.60;;;3.10;;
15049;SDS011;7622;42.724;23.250;2023-04-03T01:18:56;2.57;;;2.37;;
15049;SDS011;7622;42.724;23.250;2023-04-03T01:24:27;2.60;;;2.20;;
15049;SDS011;7622;42.724;23.250;2023-04-03T01:27:02;2.57;;;2.37;;
15049;SDS011;7622;42.724;23.250;2023-04-03T01:29:31;2.33;;;2.13;;
15049;SDS011;7622;42.724;23.250;2023-04-03T01:32:00;2.47;;;2.27;;
15049;SDS011;7622;42.724;23.250;2023-04-03T01:34:28;3.07;;;2.40;;
15049;SDS011;7622;42.724;23.250;2023-04-03T01:36:56;2.07;;;1.87;;
15049;SDS011;7622;42.724;23.250;2023-04-03T01:39:23;2.60;;;2.40;;
15049;SDS011;7622;42.724;23.250;2023-04-03T01:41:50;2.17;;;1.97;;
15049;SDS011;7622;42.724;23.250;2023-04-03T01:44:17;2.83;;;2.10;;
15049;SDS011;7622;42.724;23.250;2023-04-03T01:46:44;2.73;;;2.30;;
15049;SDS011;7622;42.724;23.250;2023-04-03T01:49:12;6.10;;;2.43;;
15049;SDS011;7622;42.724;23.250;2023-04-03T01:51:39;2.90;;;2.10;;
15049;SDS011;7622;42.724;23.250;2023-04-03T01:54:06;2.50;;;2.10;;
15049;SDS011;7622;42.724;23.250;2023-04-03T01:56:33;1.60;;;1.50;;
15049;SDS011;7622;42.724;23.250;2023-04-03T01:58:59;2.77;;;1.63;;
15049;SDS011;7622;42.724;23.250;2023-04-03T02:01:26;3.10;;;2.03;;
15049;SDS011;7622;42.724;23.250;2023-04-03T02:03:53;2.73;;;2.27;;
15049;SDS011;7622;42.724;23.250;2023-04-03T02:06:21;6.10;;;2.40;;
15049;SDS011;7622;42.724;23.250;2023-04-03T02:08:48;2.77;;;1.93;;
15049;SDS011;7622;42.724;23.250;2023-04-03T02:11:15;3.20;;;1.80;;
15049;SDS011;7622;42.724;23.250;2023-04-03T02:13:41;2.20;;;1.90;;
15049;SDS011;7622;42.724;23.250;2023-04-03T02:16:08;2.10;;;2.00;;
15049;SDS011;7622;42.724;23.250;2023-04-03T02:18:37;1.93;;;1.83;;
15049;SDS011;7622;42.724;23.250;2023-04-03T02:21:05;2.00;;;1.90;;
15049;SDS011;7622;42.724;23.250;2023-04-03T02:23:33;3.03;;;1.90;;
15049;SDS011;7622;42.724;23.250;2023-04-03T02:26:02;1.90;;;1.80;;
15049;SDS011;7622;42.724;23.250;2023-04-03T02:28:33;2.60;;;2.00;;
15049;SDS011;7622;42.724;23.250;2023-04-03T02:31:00;2.07;;;1.97;;
15049;SDS011;7622;42.724;23.250;2023-04-03T02:33:28;2.30;;;1.93;;
15049;SDS011;7622;42.724;23.250;2023-04-03T02:35:55;1.80;;;1.70;;
15049;SDS011;7622;42.724;23.250;2023-04-03T02:38:22;2.20;;;2.10;;
15049;SDS011;7622;42.724;23.250;2023-04-03T02:40:51;2.60;;;2.00;;
15049;SDS011;7622;42.724;23.250;2023-04-03T02:43:18;2.83;;;2.00;;
15049;SDS011;7622;42.724;23.250;2023-04-03T02:45:44;4.40;;;2.43;;
15049;SDS011;7622;42.724;23.250;2023-04-03T02:48:11;2.63;;;2.43;;
15049;SDS011;7622;42.724;23.250;2023-04-03T02:50:39;6.37;;;2.67;;
15049;SDS011;7622;42.724;23.250;2023-04-03T02:53:06;2.90;;;2.70;;
15049;SDS011;7622;42.724;23.250;2023-04-03T02:55:33;3.23;;;2.93;;
15049;SDS011;7622;42.724;23.250;2023-04-03T02:58:01;3.17;;;2.83;;
15049;SDS011;7622;42.724;23.250;2023-04-03T03:00:28;3.87;;;2.37;;
15049;SDS011;7622;42.724;23.250;2023-04-03T03:02:55;4.90;;;2.63;;
15049;SDS011;7622;42.724;23.250;2023-04-03T03:05:22;5.40;;;2.37;;
15049;SDS011;7622;42.724;23.250;2023-04-03T03:07:49;5.17;;;2.63;;
15049;SDS011;7622;42.724;23.250;2023-04-03T03:10:16;3.67;;;2.93;;
15049;SDS011;7622;42.724;23.250;2023-04-03T03:12:42;4.17;;;2.53;;
15049;SDS011;7622;42.724;23.250;2023-04-03T03:15:11;2.20;;;2.10;;
15049;SDS011;7622;42.724;23.250;2023-04-03T03:17:38;2.80;;;2.57;;
15049;SDS011;7622;42.724;23.250;2023-04-03T03:20:05;2.37;;;2.27;;
15049;SDS011;7622;42.724;23.250;2023-04-03T03:22:33;4.37;;;3.10;;
15049;SDS011;7622;42.724;23.250;2023-04-03T03:25:01;4.00;;;3.27;;
15049;SDS011;7622;42.724;23.250;2023-04-03T03:27:28;7.90;;;3.30;;
15049;SDS011;7622;42.724;23.250;2023-04-03T03:29:55;4.33;;;3.07;;
15049;SDS011;7622;42.724;23.250;2023-04-03T03:32:23;3.40;;;3.10;;
15049;SDS011;7622;42.724;23.250;2023-04-03T03:34:50;4.00;;;3.23;;
15049;SDS011;7622;42.724;23.250;2023-04-03T03:37:17;4.20;;;3.80;;
15049;SDS011;7622;42.724;23.250;2023-04-03T03:39:44;6.47;;;4.07;;
15049;SDS011;7622;42.724;23.250;2023-04-03T03:42:11;7.07;;;4.07;;
15049;SDS011;7622;42.724;23.250;2023-04-03T03:44:37;5.80;;;3.57;;
15049;SDS011;7622;42.724;23.250;2023-04-03T03:47:04;8.20;;;4.30;;
15049;SDS011;7622;42.724;23.250;2023-04-03T03:49:33;8.30;;;4.13;;
15049;SDS011;7622;42.724;23.250;2023-04-03T03:52:00;4.63;;;4.03;;
15049;SDS011;7622;42.724;23.250;2023-04-03T03:54:27;7.30;;;4.63;;
15049;SDS011;7622;42.724;23.250;2023-04-03T03:56:53;8.80;;;4.20;;
15049;SDS011;7622;42.724;23.250;2023-04-03T03:59:20;6.60;;;4.00;;
15049;SDS011;7622;42.724;23.250;2023-04-03T04:01:47;6.90;;;4.23;;
15049;SDS011;7622;42.724;23.250;2023-04-03T04:04:14;11.03;;;5.20;;
15049;SDS011;7622;42.724;23.250;2023-04-03T04:06:42;7.23;;;4.23;;
15049;SDS011;7622;42.724;23.250;2023-04-03T04:09:09;5.63;;;4.57;;
15049;SDS011;7622;42.724;23.250;2023-04-03T04:11:36;9.87;;;4.67;;
15049;SDS011;7622;42.724;23.250;2023-04-03T04:14:04;8.97;;;5.03;;
15049;SDS011;7622;42.724;23.250;2023-04-03T04:16:31;5.10;;;4.60;;
15049;SDS011;7622;42.724;23.250;2023-04-03T04:18:58;7.33;;;4.40;;
15049;SDS011;7622;42.724;23.250;2023-04-03T04:21:25;7.80;;;4.83;;
15049;SDS011;7622;42.724;23.250;2023-04-03T04:23:53;7.07;;;4.83;;
15049;SDS011;7622;42.724;23.250;2023-04-03T04:26:20;6.13;;;4.07;;
15049;SDS011;7622;42.724;23.250;2023-04-03T04:28:46;10.00;;;5.67;;
15049;SDS011;7622;42.724;23.250;2023-04-03T04:31:13;8.80;;;5.00;;
15049;SDS011;7622;42.724;23.250;2023-04-03T04:33:40;9.17;;;5.30;;
15049;SDS011;7622;42.724;23.250;2023-04-03T04:36:07;6.60;;;4.83;;
15049;SDS011;7622;42.724;23.250;2023-04-03T04:38:33;8.47;;;5.93;;
15049;SDS011;7622;42.724;23.250;2023-04-03T04:41:02;12.40;;;6.20;;
15049;SDS011;7622;42.724;23.250;2023-04-03T04:43:28;25.00;;;5.50;;
15049;SDS011;7622;42.724;23.250;2023-04-03T04:46:02;9.03;;;6.20;;
15049;SDS011;7622;42.724;23.250;2023-04-03T04:48:30;10.40;;;5.63;;
15049;SDS011;7622;42.724;23.250;2023-04-03T04:50:57;12.07;;;5.73;;
15049;SDS011;7622;42.724;23.250;2023-04-03T04:53:23;8.97;;;6.00;;
15049;SDS011;7622;42.724;23.250;2023-04-03T04:55:50;13.93;;;6.10;;
15049;SDS011;7622;42.724;23.250;2023-04-03T04:58:19;12.30;;;5.90;;
15049;SDS011;7622;42.724;23.250;2023-04-03T05:00:46;19.03;;;7.73;;
15049;SDS011;7622;42.724;23.250;2023-04-03T05:03:13;8.73;;;6.20;;
15049;SDS011;7622;42.724;23.250;2023-04-03T05:05:42;18.67;;;6.67;;
15049;SDS011;7622;42.724;23.250;2023-04-03T05:08:09;11.70;;;5.57;;
15049;SDS011;7622;42.724;23.250;2023-04-03T05:10:35;6.80;;;4.97;;
15049;SDS011;7622;42.724;23.250;2023-04-03T05:13:02;6.30;;;4.87;;
15049;SDS011;7622;42.724;23.250;2023-04-03T05:15:31;5.77;;;4.80;;
15049;SDS011;7622;42.724;23.250;2023-04-03T05:18:00;8.77;;;4.63;;
15049;SDS011;7622;42.724;23.250;2023-04-03T05:20:30;10.93;;;5.00;;
15049;SDS011;7622;42.724;23.250;2023-04-03T05:22:57;10.43;;;5.57;;
15049;SDS011;7622;42.724;23.250;2023-04-03T05:25:24;8.87;;;5.53;;
15049;SDS011;7622;42.724;23.250;2023-04-03T05:27:51;12.47;;;8.00;;
15049;SDS011;7622;42.724;23.250;2023-04-03T05:30:18;23.53;;;11.00;;
15049;SDS011;7622;42.724;23.250;2023-04-03T05:32:46;20.57;;;10.57;;
15049;SDS011;7622;42.724;23.250;2023-04-03T05:35:13;25.13;;;10.67;;
15049;SDS011;7622;42.724;23.250;2023-04-03T05:37:40;18.53;;;10.00;;
15049;SDS011;7622;42.724;23.250;2023-04-03T05:40:07;13.30;;;9.67;;
15049;SDS011;7622;42.724;23.250;2023-04-03T05:42:35;17.03;;;8.73;;
15049;SDS011;7622;42.724;23.250;2023-04-03T05:45:02;11.50;;;8.30;;
15049;SDS011;7622;42.724;23.250;2023-04-03T05:47:32;18.47;;;9.13;;
15049;SDS011;7622;42.724;23.250;2023-04-03T05:50:02;25.10;;;8.63;;
15049;SDS011;7622;42.724;23.250;2023-04-03T05:52:31;8.57;;;5.80;;
15049;SDS011;7622;42.724;23.250;2023-04-03T05:55:01;7.53;;;4.60;;
15049;SDS011;7622;42.724;23.250;2023-04-03T05:57:28;8.77;;;5.27;;
15049;SDS011;7622;42.724;23.250;2023-04-03T05:59:55;7.23;;;4.30;;
15049;SDS011;7622;42.724;23.250;2023-04-03T06:02:22;9.67;;;4.23;;
15049;SDS011;7622;42.724;23.250;2023-04-03T06:04:50;11.30;;;4.00;;
15049;SDS011;7622;42.724;23.250;2023-04-03T06:07:18;8.17;;;4.03;;
15049;SDS011;7622;42.724;23.250;2023-04-03T06:09:47;8.23;;;4.00;;
15049;SDS011;7622;42.724;23.250;2023-04-03T06:12:15;13.43;;;3.90;;
15049;SDS011;7622;42.724;23.250;2023-04-03T06:14:42;6.37;;;4.10;;
15049;SDS011;7622;42.724;23.250;2023-04-03T06:17:09;12.60;;;5.17;;
15049;SDS011;7622;42.724;23.250;2023-04-03T06:19:37;10.20;;;5.57;;
15049;SDS011;7622;42.724;23.250;2023-04-03T06:22:04;9.13;;;6.33;;
15049;SDS011;7622;42.724;23.250;2023-04-03T06:24:32;11.00;;;6.97;;
15049;SDS011;7622;42.724;23.250;2023-04-03T06:26:59;15.47;;;7.50;;
15049;SDS011;7622;42.724;23.250;2023-04-03T06:29:26;16.87;;;6.97;;
15049;SDS011;7622;42.724;23.250;2023-04-03T06:31:52;11.00;;;6.60;;
15049;SDS011;7622;42.724;23.250;2023-04-03T06:34:19;12.77;;;7.77;;
15049;SDS011;7622;42.724;23.250;2023-04-03T06:36:46;11.20;;;6.60;;
15049;SDS011;7622;42.724;23.250;2023-04-03T06:39:14;13.63;;;8.73;;
15049;SDS011;7622;42.724;23.250;2023-04-03T06:41:44;14.57;;;8.80;;
15049;SDS011;7622;42.724;23.250;2023-04-03T06:44:11;13.17;;;8.60;;
15049;SDS011;7622;42.724;23.250;2023-04-03T06:46:41;18.50;;;8.17;;
15049;SDS011;7622;42.724;23.250;2023-04-03T06:49:12;11.87;;;8.60;;
15049;SDS011;7622;42.724;23.250;2023-04-03T06:51:40;18.33;;;8.97;;
15049;SDS011;7622;42.724;23.250;2023-04-03T06:54:06;16.60;;;8.90;;
15049;SDS011;7622;42.724;23.250;2023-04-03T06:56:34;16.30;;;8.67;;
15049;SDS011;7622;42.724;23.250;2023-04-03T06:59:02;17.23;;;8.10;;
15049;SDS011;7622;42.724;23.250;2023-04-03T07:01:29;8.47;;;6.97;;
15049;SDS011;7622;42.724;23.250;2023-04-03T07:03:56;11.27;;;7.53;;
15049;SDS011;7622;42.724;23.250;2023-04-03T07:06:26;8.30;;;6.73;;
15049;SDS011;7622;42.724;23.250;2023-04-03T07:08:53;15.63;;;7.57;;
15049;SDS011;7622;42.724;23.250;2023-04-03T07:11:22;9.93;;;6.80;;
15049;SDS011;7622;42.724;23.250;2023-04-03T07:13:53;11.77;;;7.43;;
15049;SDS011;7622;42.724;23.250;2023-04-03T07:16:23;7.63;;;5.30;;
15049;SDS011;7622;42.724;23.250;2023-04-03T07:18:51;10.40;;;5.97;;
15049;SDS011;7622;42.724;23.250;2023-04-03T07:21:17;10.97;;;6.03;;
15049;SDS011;7622;42.724;23.250;2023-04-03T07:23:46;7.90;;;5.63;;
15049;SDS011;7622;42.724;23.250;2023-04-03T07:26:13;12.17;;;5.80;;
15049;SDS011;7622;42.724;23.250;2023-04-03T07:28:40;9.27;;;5.07;;
15049;SDS011;7622;42.724;23.250;2023-04-03T07:31:07;8.53;;;5.50;;
15049;SDS011;7622;42.724;23.250;2023-04-03T07:33:40;19.63;;;5.60;;
15049;SDS011;7622;42.724;23.250;2023-04-03T07:36:09;40.40;;;7.63;;
15049;SDS011;7622;42.724;23.250;2023-04-03T07:38:40;10.93;;;6.00;;
15049;SDS011;7622;42.724;23.250;2023-04-03T07:41:10;22.43;;;6.70;;
15049;SDS011;7622;42.724;23.250;2023-04-03T07:43:38;7.67;;;5.63;;
15049;SDS011;7622;42.724;23.250;2023-04-03T07:46:06;7.20;;;4.53;;
15049;SDS011;7622;42.724;23.250;2023-04-03T07:48:34;9.80;;;5.17;;
15049;SDS011;7622;42.724;23.250;2023-04-03T07:51:03;9.17;;;4.73;;
15049;SDS011;7622;42.724;23.250;2023-04-03T07:53:31;5.50;;;4.67;;
15049;SDS011;7622;42.724;23.250;2023-04-03T07:55:58;8.30;;;4.77;;
15049;SDS011;7622;42.724;23.250;2023-04-03T07:58:26;10.53;;;5.50;;
15049;SDS011;7622;42.724;23.250;2023-04-03T08:00:53;6.27;;;5.07;;
15049;SDS011;7622;42.724;23.250;2023-04-03T08:03:20;9.07;;;4.73;;
15049;SDS011;7622;42.724;23.250;2023-04-03T08:05:52;6.27;;;4.90;;
15049;SDS011;7622;42.724;23.250;2023-04-03T08:08:21;10.50;;;5.23;;
15049;SDS011;7622;42.724;23.250;2023-04-03T08:10:50;8.97;;;5.77;;
15049;SDS011;7622;42.724;23.250;2023-04-03T08:13:17;14.17;;;5.37;;
15049;SDS011;7622;42.724;23.250;2023-04-03T08:15:44;9.00;;;5.53;;
15049;SDS011;7622;42.724;23.250;2023-04-03T08:18:14;8.03;;;6.17;;
15049;SDS011;7622;42.724;23.250;2023-04-03T08:20:43;13.73;;;6.50;;
15049;SDS011;7622;42.724;23.250;2023-04-03T08:23:10;7.10;;;6.10;;
15049;SDS011;7622;42.724;23.250;2023-04-03T08:25:43;11.83;;;6.00;;
15049;SDS011;7622;42.724;23.250;2023-04-03T08:28:11;8.23;;;5.33;;
15049;SDS011;7622;42.724;23.250;2023-04-03T08:30:41;7.07;;;6.37;;
15049;SDS011;7622;42.724;23.250;2023-04-03T08:33:09;8.07;;;6.60;;
15049;SDS011;7622;42.724;23.250;2023-04-03T08:35:38;11.80;;;7.07;;
15049;SDS011;7622;42.724;23.250;2023-04-03T08:38:05;9.90;;;6.57;;
15049;SDS011;7622;42.724;23.250;2023-04-03T08:40:32;7.23;;;6.53;;
15049;SDS011;7622;42.724;23.250;2023-04-03T08:43:03;9.80;;;7.40;;
15049;SDS011;7622;42.724;23.250;2023-04-03T08:45:48;10.13;;;7.87;;
15049;SDS011;7622;42.724;23.250;2023-04-03T08:48:19;13.60;;;8.13;;
15049;SDS011;7622;42.724;23.250;2023-04-03T08:50:48;8.90;;;7.70;;
15049;SDS011;7622;42.724;23.250;2023-04-03T08:53:20;11.17;;;7.47;;
15049;SDS011;7622;42.724;23.250;2023-04-03T08:55:49;15.03;;;8.40;;
15049;SDS011;7622;42.724;23.250;2023-04-03T08:58:19;10.87;;;7.90;;
15049;SDS011;7622;42.724;23.250;2023-04-03T09:00:49;8.57;;;7.77;;
15049;SDS011;7622;42.724;23.250;2023-04-03T09:03:18;13.73;;;8.43;;
15049;SDS011;7622;42.724;23.250;2023-04-03T09:05:48;17.37;;;9.57;;
15049;SDS011;7622;42.724;23.250;2023-04-03T09:08:21;11.67;;;9.77;;
15049;SDS011;7622;42.724;23.250;2023-04-03T09:10:58;17.73;;;10.67;;
15049;SDS011;7622;42.724;23.250;2023-04-03T09:13:33;10.50;;;7.23;;
15049;SDS011;7622;42.724;23.250;2023-04-03T09:16:12;14.23;;;9.40;;
15049;SDS011;7622;42.724;23.250;2023-04-03T09:18:48;10.70;;;7.97;;
15049;SDS011;7622;42.724;23.250;2023-04-03T09:21:23;23.60;;;9.47;;
15049;SDS011;7622;42.724;23.250;2023-04-03T09:23:53;14.90;;;9.00;;
15049;SDS011;7622;42.724;23.250;2023-04-03T09:26:24;16.00;;;9.97;;
15049;SDS011;7622;42.724;23.250;2023-04-03T09:28:57;15.13;;;9.77;;
15049;SDS011;7622;42.724;23.250;2023-04-03T09:31:36;20.87;;;9.93;;
15049;SDS011;7622;42.724;23.250;2023-04-03T09:34:05;16.57;;;10.20;;
15049;SDS011;7622;42.724;23.250;2023-04-03T09:36:43;15.87;;;11.00;;
15049;SDS011;7622;42.724;23.250;2023-04-03T09:39:11;14.87;;;10.63;;
15049;SDS011;7622;42.724;23.250;2023-04-03T09:41:41;15.33;;;10.07;;
15049;SDS011;7622;42.724;23.250;2023-04-03T09:44:22;14.17;;;9.57;;
15049;SDS011;7622;42.724;23.250;2023-04-03T09:46:50;18.90;;;10.30;;
15049;SDS011;7622;42.724;23.250;2023-04-03T09:49:17;15.67;;;9.97;;
15049;SDS011;7622;42.724;23.250;2023-04-03T09:51:45;15.07;;;9.83;;
15049;SDS011;7622;42.724;23.250;2023-04-03T09:57:07;14.13;;;9.57;;
15049;SDS011;7622;42.724;23.250;2023-04-03T09:59:39;18.87;;;10.77;;
15049;SDS011;7622;42.724;23.250;2023-04-03T10:02:32;18.07;;;10.93;;
15049;SDS011;7622;42.724;23.250;2023-04-03T10:05:02;18.03;;;10.77;;
15049;SDS011;7622;42.724;23.250;2023-04-03T10:07:32;17.77;;;10.63;;
15049;SDS011;7622;42.724;23.250;2023-04-03T10:10:03;14.63;;;10.40;;
15049;SDS011;7622;42.724;23.250;2023-04-03T10:12:42;16.47;;;10.10;;
15049;SDS011;7622;42.724;23.250;2023-04-03T10:15:12;23.83;;;10.17;;
15049;SDS011;7622;42.724;23.250;2023-04-03T10:17:45;26.13;;;14.60;;
15049;SDS011;7622;42.724;23.250;2023-04-03T10:20:30;22.90;;;14.10;;
15049;SDS011;7622;42.724;23.250;2023-04-03T10:23:05;14.70;;;10.50;;
15049;SDS011;7622;42.724;23.250;2023-04-03T10:25:47;21.63;;;9.30;;
15049;SDS011;7622;42.724;23.250;2023-04-03T10:28:22;16.40;;;10.23;;
15049;SDS011;7622;42.724;23.250;2023-04-03T10:30:56;19.67;;;10.17;;
15049;SDS011;7622;42.724;23.250;2023-04-03T10:33:34;12.53;;;8.93;;
15049;SDS011;7622;42.724;23.250;2023-04-03T10:36:12;8.53;;;6.90;;
15049;SDS011;7622;42.724;23.250;2023-04-03T10:38:51;8.20;;;5.30;;
15049;SDS011;7622;42.724;23.250;2023-04-03T10:41:29;7.83;;;6.10;;
15049;SDS011;7622;42.724;23.250;2023-04-03T10:44:09;7.63;;;6.50;;
15049;SDS011;7622;42.724;23.250;2023-04-03T10:46:48;9.90;;;5.90;;
15049;SDS011;7622;42.724;23.250;2023-04-03T10:49:31;7.90;;;5.73;;
15049;SDS011;7622;42.724;23.250;2023-04-03T10:52:10;10.60;;;7.33;;
15049;SDS011;7622;42.724;23.250;2023-04-03T10:54:45;6.73;;;6.13;;
15049;SDS011;7622;42.724;23.250;2023-04-03T10:57:15;9.63;;;6.27;;
15049;SDS011;7622;42.724;23.250;2023-04-03T10:59:43;6.60;;;5.50;;
15049;SDS011;7622;42.724;23.250;2023-04-03T11:02:16;6.87;;;5.07;;
15049;SDS011;7622;42.724;23.250;2023-04-03T11:04:51;6.33;;;4.43;;
15049;SDS011;7622;42.724;23.250;2023-04-03T11:07:23;6.90;;;4.67;;
15049;SDS011;7622;42.724;23.250;2023-04-03T11:09:52;8.13;;;4.80;;
15049;SDS011;7622;42.724;23.250;2023-04-03T11:12:24;4.67;;;3.60;;
15049;SDS011;7622;42.724;23.250;2023-04-03T11:14:56;4.23;;;3.87;;
15049;SDS011;7622;42.724;23.250;2023-04-03T11:17:28;4.63;;;4.03;;
15049;SDS011;7622;42.724;23.250;2023-04-03T11:20:00;4.87;;;4.47;;
15049;SDS011;7622;42.724;23.250;2023-04-03T11:22:34;7.63;;;4.67;;
15049;SDS011;7622;42.724;23.250;2023-04-03T11:25:08;7.10;;;3.83;;
15049;SDS011;7622;42.724;23.250;2023-04-03T11:27:48;5.30;;;3.97;;
15049;SDS011;7622;42.724;23.250;2023-04-03T11:30:23;7.03;;;5.00;;
15049;SDS011;7622;42.724;23.250;2023-04-03T11:33:04;7.70;;;4.17;;
15049;SDS011;7622;42.724;23.250;2023-04-03T11:35:48;7.87;;;3.93;;
15049;SDS011;7622;42.724;23.250;2023-04-03T11:38:19;5.37;;;3.57;;
15049;SDS011;7622;42.724;23.250;2023-04-03T11:40:51;6.93;;;3.63;;
15049;SDS011;7622;42.724;23.250;2023-04-03T11:43:21;4.20;;;3.53;;
15049;SDS011;7622;42.724;23.250;2023-04-03T11:45:55;3.37;;;3.07;;
15049;SDS011;7622;42.724;23.250;2023-04-03T11:48:44;5.20;;;3.37;;
15049;SDS011;7622;42.724;23.250;2023-04-03T12:03:07;6.17;;;4.00;;
15049;SDS011;7622;42.724;23.250;2023-04-03T12:09:27;5.27;;;4.87;;
15049;SDS011;7622;42.724;23.250;2023-04-03T12:11:58;10.13;;;5.97;;
15049;SDS011;7622;42.724;23.250;2023-04-03T12:14:28;6.00;;;5.40;;
15049;SDS011;7622;42.724;23.250;2023-04-03T12:16:55;4.73;;;4.40;;
15049;SDS011;7622;42.724;23.250;2023-04-03T12:22:15;6.30;;;5.70;;
15049;SDS011;7622;42.724;23.250;2023-04-03T12:24:47;6.07;;;5.57;;
15049;SDS011;7622;42.724;23.250;2023-04-03T12:27:19;5.00;;;4.57;;
15049;SDS011;7622;42.724;23.250;2023-04-03T12:29:51;5.03;;;4.53;;
15049;SDS011;7622;42.724;23.250;2023-04-03T12:32:36;3.50;;;3.17;;
15049;SDS011;7622;42.724;23.250;2023-04-03T12:35:14;4.27;;;3.73;;
15049;SDS011;7622;42.724;23.250;2023-04-03T12:41:01;3.60;;;3.10;;
15049;SDS011;7622;42.724;23.250;2023-04-03T12:43:47;2.83;;;2.60;;
15049;SDS011;7622;42.724;23.250;2023-04-03T12:46:26;4.63;;;3.20;;
15049;SDS011;7622;42.724;23.250;2023-04-03T12:49:00;3.00;;;2.80;;
15049;SDS011;7622;42.724;23.250;2023-04-03T12:51:28;4.53;;;4.23;;
15049;SDS011;7622;42.724;23.250;2023-04-03T12:54:03;6.57;;;3.57;;
15049;SDS011;7622;42.724;23.250;2023-04-03T12:56:40;3.77;;;3.47;;
15049;SDS011;7622;42.724;23.250;2023-04-03T12:59:14;4.40;;;3.60;;
15049;SDS011;7622;42.724;23.250;2023-04-03T13:01:42;3.20;;;2.97;;
15049;SDS011;7622;42.724;23.250;2023-04-03T13:04:10;3.93;;;3.60;;
15049;SDS011;7622;42.724;23.250;2023-04-03T13:06:39;3.47;;;3.27;;
15049;SDS011;7622;42.724;23.250;2023-04-03T13:09:17;4.17;;;3.87;;
15049;SDS011;7622;42.724;23.250;2023-04-03T13:11:49;5.33;;;4.10;;
15049;SDS011;7622;42.724;23.250;2023-04-03T13:14:19;5.70;;;4.40;;
15049;SDS011;7622;42.724;23.250;2023-04-03T13:16:54;4.73;;;4.33;;
15049;SDS011;7622;42.724;23.250;2023-04-03T13:19:22;4.73;;;4.33;;
15049;SDS011;7622;42.724;23.250;2023-04-03T13:21:51;5.33;;;4.83;;
15049;SDS011;7622;42.724;23.250;2023-04-03T13:24:24;6.23;;;5.47;;
15049;SDS011;7622;42.724;23.250;2023-04-03T13:26:53;5.63;;;5.13;;
15049;SDS011;7622;42.724;23.250;2023-04-03T13:29:21;6.13;;;5.57;;
15049;SDS011;7622;42.724;23.250;2023-04-03T13:31:52;6.03;;;5.43;;
15049;SDS011;7622;42.724;23.250;2023-04-03T13:34:21;8.37;;;6.97;;
15049;SDS011;7622;42.724;23.250;2023-04-03T13:36:57;8.63;;;6.50;;
15049;SDS011;7622;42.724;23.250;2023-04-03T13:39:27;9.37;;;6.67;;
15049;SDS011;7622;42.724;23.250;2023-04-03T13:41:57;8.50;;;6.57;;
15049;SDS011;7622;42.724;23.250;2023-04-03T13:44:29;15.43;;;10.67;;
15049;SDS011;7622;42.724;23.250;2023-04-03T13:46:58;8.37;;;6.67;;
15049;SDS011;7622;42.724;23.250;2023-04-03T13:49:31;6.70;;;5.50;;
15049;SDS011;7622;42.724;23.250;2023-04-03T13:52:00;5.53;;;5.13;;
15049;SDS011;7622;42.724;23.250;2023-04-03T13:54:29;6.97;;;6.17;;
15049;SDS011;7622;42.724;23.250;2023-04-03T13:57:00;6.30;;;5.53;;
15049;SDS011;7622;42.724;23.250;2023-04-03T13:59:29;6.53;;;5.40;;
15049;SDS011;7622;42.724;23.250;2023-04-03T14:02:09;7.17;;;6.47;;
15049;SDS011;7622;42.724;23.250;2023-04-03T14:04:45;6.87;;;6.20;;
15049;SDS011;7622;42.724;23.250;2023-04-03T14:07:15;7.17;;;6.40;;
15049;SDS011;7622;42.724;23.250;2023-04-03T14:09:45;10.57;;;7.13;;
15049;SDS011;7622;42.724;23.250;2023-04-03T14:12:14;9.77;;;7.20;;
15049;SDS011;7622;42.724;23.250;2023-04-03T14:14:43;8.97;;;7.50;;
15049;SDS011;7622;42.724;23.250;2023-04-03T14:17:13;7.47;;;6.77;;
15049;SDS011;7622;42.724;23.250;2023-04-03T14:19:41;7.80;;;7.10;;
15049;SDS011;7622;42.724;23.250;2023-04-03T14:22:13;8.60;;;7.70;;
15049;SDS011;7622;42.724;23.250;2023-04-03T14:24:42;8.80;;;8.00;;
15049;SDS011;7622;42.724;23.250;2023-04-03T14:27:12;9.97;;;7.10;;
15049;SDS011;7622;42.724;23.250;2023-04-03T14:29:44;10.30;;;8.10;;
15049;SDS011;7622;42.724;23.250;2023-04-03T14:32:12;7.70;;;7.00;;
15049;SDS011;7622;42.724;23.250;2023-04-03T14:34:39;9.17;;;8.13;;
15049;SDS011;7622;42.724;23.250;2023-04-03T14:37:09;7.97;;;7.23;;
15049;SDS011;7622;42.724;23.250;2023-04-03T14:39:37;7.13;;;6.53;;
15049;SDS011;7622;42.724;23.250;2023-04-03T14:42:04;8.60;;;6.37;;
15049;SDS011;7622;42.724;23.250;2023-04-03T14:44:33;6.63;;;6.13;;
15049;SDS011;7622;42.724;23.250;2023-04-03T14:46:59;6.10;;;5.57;;
15049;SDS011;7622;42.724;23.250;2023-04-03T14:49:29;6.03;;;5.33;;
15049;SDS011;7622;42.724;23.250;2023-04-03T14:51:56;5.93;;;5.43;;
15049;SDS011;7622;42.724;23.250;2023-04-03T14:54:24;6.07;;;5.57;;
15049;SDS011;7622;42.724;23.250;2023-04-03T14:56:52;4.03;;;3.63;;
15049;SDS011;7622;42.724;23.250;2023-04-03T14:59:20;6.43;;;4.80;;
15049;SDS011;7622;42.724;23.250;2023-04-03T15:01:49;6.27;;;5.63;;
15049;SDS011;7622;42.724;23.250;2023-04-03T15:04:16;6.70;;;5.00;;
15049;SDS011;7622;42.724;23.250;2023-04-03T15:06:45;5.90;;;5.50;;
15049;SDS011;7622;42.724;23.250;2023-04-03T15:09:15;6.13;;;5.63;;
15049;SDS011;7622;42.724;23.250;2023-04-03T15:11:46;4.57;;;4.17;;
15049;SDS011;7622;42.724;23.250;2023-04-03T15:14:13;3.47;;;3.27;;
15049;SDS011;7622;42.724;23.250;2023-04-03T15:16:40;5.93;;;5.37;;
15049;SDS011;7622;42.724;23.250;2023-04-03T15:19:08;3.37;;;3.17;;
15049;SDS011;7622;42.724;23.250;2023-04-03T15:21:36;3.70;;;3.50;;
15049;SDS011;7622;42.724;23.250;2023-04-03T15:24:03;3.47;;;3.17;;